Terminal Aerodrome Forecast
Issued by NWS

Current Version | Previous Version | Graphics & Text | Print | Product List | Glossary On
Versions: 1 2 3 4 5 6 7 8 9 10 11 12 13 14 15
000
FTUS41 KPBZ 201728
TAFMGW
TAF
KMGW 201728Z 2018/2118 24007KT P6SM SCT025 BKN040
     FM201900 27006KT P6SM SCT050
     FM202300 34004KT P6SM BKN050
     FM210600 00000KT 3SM BR BKN090
     FM210900 00000KT 3/4SM BR SCT008
     FM211200 00000KT P6SM BKN050=

USA.gov is the U.S. government's official web portal to all federal, state and local government web resources and services.